Time;durP1;ratioP1;P1;durP2;ratioP2;P2;SDS_P1;SDS_P2;PMS_P1;PMS_P2;Temp;Humidity;BMP_temperature;BMP_pressure;BME280_temperature;BME280_humidity;BME280_pressure;Samples;Min_cycle;Max_cycle;Signal;HPM_P1;HPM_P2
2021/12/09 00:02:20;;;;;;;0.00;0.00;;;;;18.20;100931.00;;;;4875789;29;20049;-75
2021/12/09 00:04:53;;;;;;;1.02;0.25;;;;;18.20;100935.00;;;;4875741;29;20060;-73
2021/12/09 00:07:25;;;;;;;1.00;0.77;;;;;18.10;100959.00;;;;4875931;29;20041;-71
2021/12/09 00:09:56;;;;;;;0.00;0.00;;;;;18.10;100945.00;;;;4875357;29;20049;-71
2021/12/09 00:12:27;;;;;;;0.00;0.00;;;;;17.90;100976.00;;;;4874905;29;20066;-74
2021/12/09 00:14:58;;;;;;;0.30;0.15;;;;;17.80;100980.00;;;;4875630;29;20132;-77
2021/12/09 00:17:28;;;;;;;2.07;0.27;;;;;18.00;100995.00;;;;4876002;29;20055;-74
2021/12/09 00:19:57;;;;;;;0.10;0.00;;;;;18.10;100981.00;;;;4875504;29;20096;-74
2021/12/09 00:22:27;;;;;;;0.00;0.00;;;;;18.10;100995.00;;;;4875385;29;20080;-75
2021/12/09 00:24:56;;;;;;;3.50;0.30;;;;;18.00;100989.00;;;;4874480;29;20053;-75
2021/12/09 00:27:26;;;;;;;0.00;0.00;;;;;17.90;100992.00;;;;4873975;29;20109;-75
2021/12/09 00:29:55;;;;;;;0.00;0.00;;;;;17.70;100996.00;;;;4875235;29;20520;-72
2021/12/09 00:32:26;;;;;;;1.35;0.85;;;;;17.70;100990.00;;;;4875244;29;20083;-74
2021/12/09 00:34:55;;;;;;;0.00;0.00;;;;;17.60;100999.00;;;;4873946;29;20061;-73
2021/12/09 00:37:32;;;;;;;0.00;0.00;;;;;17.70;101016.00;;;;4874745;29;20068;-75
2021/12/09 00:40:02;;;;;;;0.00;0.00;;;;;17.60;101005.00;;;;4875250;29;20093;-77
2021/12/09 00:42:32;;;;;;;0.00;0.00;;;;;17.40;101005.00;;;;4874771;29;20053;-76
2021/12/09 00:45:01;;;;;;;0.00;0.00;;;;;17.40;100975.00;;;;4889036;29;20057;-73
2021/12/09 00:47:31;;;;;;;0.00;0.00;;;;;17.30;100994.00;;;;4875056;29;20176;-73
2021/12/09 00:50:00;;;;;;;0.00;0.00;;;;;17.20;100985.00;;;;4874568;29;20132;-76
2021/12/09 00:52:29;;;;;;;0.00;0.00;;;;;17.20;101007.00;;;;4874434;29;20136;-75
2021/12/09 00:54:59;;;;;;;3.83;0.20;;;;;17.30;100979.00;;;;4874676;29;20037;-75
2021/12/09 00:57:29;;;;;;;0.00;0.00;;;;;17.30;101005.00;;;;4874672;29;20049;-71
2021/12/09 00:59:59;;;;;;;0.10;0.00;;;;;17.40;101001.00;;;;4874762;29;20093;-72
2021/12/09 01:02:28;;;;;;;0.00;0.00;;;;;17.40;101018.00;;;;4874639;29;20057;-74
2021/12/09 01:04:57;;;;;;;0.00;0.00;;;;;17.50;101027.00;;;;4889407;29;20786;-72
2021/12/09 01:07:27;;;;;;;0.00;0.00;;;;;17.50;100991.00;;;;4874057;29;20049;-72
2021/12/09 01:09:56;;;;;;;0.00;0.00;;;;;17.50;100994.00;;;;4879207;29;20097;-73
2021/12/09 01:12:27;;;;;;;0.38;0.20;;;;;17.50;100982.00;;;;4881498;29;20084;-73
2021/12/09 01:14:56;;;;;;;0.00;0.00;;;;;17.40;101012.00;;;;4876516;29;20459;-73
2021/12/09 01:17:26;;;;;;;0.00;0.00;;;;;17.60;101018.00;;;;4874482;29;20129;-74
2021/12/09 01:19:55;;;;;;;0.00;0.00;;;;;17.40;100998.00;;;;4875017;29;20069;-73
2021/12/09 01:22:33;;;;;;;0.10;0.10;;;;;17.40;101020.00;;;;4874641;29;20060;-74
2021/12/09 01:25:06;;;;;;;0.00;0.00;;;;;17.40;101013.00;;;;4874611;29;20056;-73
2021/12/09 01:27:38;;;;;;;0.00;0.00;;;;;17.30;101019.00;;;;4874901;29;20513;-74
2021/12/09 01:30:14;;;;;;;0.00;0.00;;;;;17.20;101010.00;;;;4874540;29;20092;-74
2021/12/09 01:32:51;;;;;;;415.90;35.05;;;;;17.20;100990.00;;;;4874165;29;20045;-73
2021/12/09 01:35:24;;;;;;;0.00;0.00;;;;;17.20;100986.00;;;;4874429;29;20568;-74
2021/12/09 01:38:01;;;;;;;1.95;0.10;;;;;17.20;100990.00;;;;4873421;29;20076;-74
2021/12/09 01:40:30;;;;;;;0.00;0.00;;;;;17.10;101004.00;;;;4874398;29;20045;-74
2021/12/09 01:43:00;;;;;;;0.00;0.00;;;;;17.00;100993.00;;;;4874535;29;20549;-74
2021/12/09 01:45:30;;;;;;;1.08;0.52;;;;;16.90;101013.00;;;;4874408;29;20073;-73
2021/12/09 01:47:59;;;;;;;0.00;0.00;;;;;16.90;101009.00;;;;4873516;29;20513;-74
2021/12/09 01:50:31;;;;;;;0.00;0.00;;;;;17.00;100997.00;;;;4888028;29;20132;-73
2021/12/09 01:53:07;;;;;;;0.38;0.38;;;;;17.10;101019.00;;;;4874266;29;20093;-75
2021/12/09 01:55:37;;;;;;;0.00;0.00;;;;;17.10;101007.00;;;;4874711;29;20069;-75
2021/12/09 01:58:06;;;;;;;0.10;0.10;;;;;16.90;101021.00;;;;4874034;29;20101;-74
2021/12/09 02:00:38;;;;;;;0.00;0.00;;;;;16.90;101006.00;;;;4873227;29;20049;-74
2021/12/09 02:03:08;;;;;;;0.00;0.00;;;;;17.00;101021.00;;;;4873957;29;20124;-73
2021/12/09 02:05:40;;;;;;;0.00;0.00;;;;;16.90;101004.00;;;;4873498;29;20057;-73
2021/12/09 02:08:13;;;;;;;0.08;0.08;;;;;17.00;101013.00;;;;4873392;29;20519;-74
2021/12/09 02:10:46;;;;;;;0.00;0.00;;;;;16.90;101008.00;;;;4874499;29;20408;-75
2021/12/09 02:13:17;;;;;;;0.00;0.00;;;;;16.70;100990.00;;;;4873528;29;20552;-73
2021/12/09 02:15:46;;;;;;;0.00;0.00;;;;;16.50;100994.00;;;;4873453;29;20109;-74
2021/12/09 02:18:16;;;;;;;0.00;0.00;;;;;16.50;101007.00;;;;4872822;29;20077;-72
2021/12/09 02:20:45;;;;;;;0.00;0.00;;;;;16.60;101016.00;;;;4873469;29;20093;-75
2021/12/09 02:23:17;;;;;;;0.00;0.00;;;;;16.70;101008.00;;;;4874026;29;20096;-73
2021/12/09 02:25:47;;;;;;;0.00;0.00;;;;;16.70;101019.00;;;;4872816;29;20037;-72
2021/12/09 02:28:16;;;;;;;0.00;0.00;;;;;16.60;100997.00;;;;4873494;29;20053;-75
2021/12/09 02:30:46;;;;;;;0.00;0.00;;;;;16.60;100988.00;;;;4873427;29;20093;-74
2021/12/09 02:33:15;;;;;;;0.00;0.00;;;;;16.50;100985.00;;;;4873241;29;20065;-74
2021/12/09 02:35:44;;;;;;;0.00;0.00;;;;;16.40;101012.00;;;;4873305;29;20049;-75
2021/12/09 02:38:14;;;;;;;0.00;0.00;;;;;16.30;100989.00;;;;4873060;29;20409;-74
2021/12/09 02:40:43;;;;;;;0.00;0.00;;;;;16.20;100984.00;;;;4873530;29;20061;-72
2021/12/09 02:43:13;;;;;;;0.00;0.00;;;;;16.20;101003.00;;;;4873026;29;20578;-74
2021/12/09 02:45:51;;;;;;;0.00;0.00;;;;;16.30;100976.00;;;;4873190;29;20056;-75
2021/12/09 02:48:23;;;;;;;0.00;0.00;;;;;16.50;100993.00;;;;4873194;29;20045;-73
2021/12/09 02:50:56;;;;;;;0.00;0.00;;;;;16.40;100999.00;;;;4873447;29;20049;-76
2021/12/09 02:53:25;;;;;;;0.00;0.00;;;;;16.20;100995.00;;;;4873320;29;20193;-74
2021/12/09 02:55:55;;;;;;;0.00;0.00;;;;;16.10;100990.00;;;;4873122;29;20489;-73
2021/12/09 02:58:24;;;;;;;0.00;0.00;;;;;15.90;100988.00;;;;4873199;29;20390;-74
2021/12/09 03:01:13;;;;;;;0.00;0.00;;;;;15.90;100993.00;;;;4873370;29;20561;-75
2021/12/09 03:03:51;;;;;;;0.00;0.00;;;;;15.80;100999.00;;;;4872681;29;20049;-74
2021/12/09 03:06:25;;;;;;;0.00;0.00;;;;;15.60;100980.00;;;;4872675;29;20045;-72
2021/12/09 03:08:56;;;;;;;0.00;0.00;;;;;15.40;100993.00;;;;4873310;29;20513;-73
2021/12/09 03:11:25;;;;;;;0.00;0.00;;;;;15.30;100953.00;;;;4886888;29;20141;-73
2021/12/09 03:13:54;;;;;;;0.00;0.00;;;;;15.20;100955.00;;;;4872712;29;20037;-74
2021/12/09 03:16:24;;;;;;;0.00;0.00;;;;;15.00;100968.00;;;;4873145;29;20465;-72
2021/12/09 03:19:05;;;;;;;0.00;0.00;;;;;14.90;100965.00;;;;4873023;29;20901;-74
2021/12/09 03:21:43;;;;;;;0.00;0.00;;;;;14.80;100921.00;;;;4872320;29;20417;-73
2021/12/09 03:24:16;;;;;;;0.15;0.15;;;;;14.80;100946.00;;;;4873009;29;20045;-76
2021/12/09 03:26:54;;;;;;;0.00;0.00;;;;;14.70;100952.00;;;;4873603;29;20053;-73
2021/12/09 03:29:27;;;;;;;0.00;0.00;;;;;14.60;100924.00;;;;4874591;29;20110;-76
2021/12/09 03:32:06;;;;;;;0.00;0.00;;;;;14.50;100951.00;;;;4890631;29;20072;-72
2021/12/09 03:34:39;;;;;;;0.00;0.00;;;;;14.40;100936.00;;;;4876383;29;20112;-75
2021/12/09 03:37:14;;;;;;;1.92;0.38;;;;;14.40;100929.00;;;;4876416;29;20076;-73
2021/12/09 03:39:45;;;;;;;0.00;0.00;;;;;14.50;100934.00;;;;4891238;29;20230;-74
2021/12/09 03:42:17;;;;;;;;;;;;;14.50;100939.00;;;;4876580;29;20113;-72
2021/12/09 03:44:49;;;;;;;0.00;0.00;;;;;14.50;100893.00;;;;4890129;29;19963;-74
2021/12/09 03:47:22;;;;;;;0.00;0.00;;;;;14.50;100920.00;;;;4876231;29;20052;-73
2021/12/09 03:49:53;;;;;;;0.00;0.00;;;;;14.50;100921.00;;;;4876320;29;20057;-71
2021/12/09 03:52:24;;;;;;;0.22;0.20;;;;;14.40;100898.00;;;;4876081;29;20049;-73
2021/12/09 03:54:54;;;;;;;0.00;0.00;;;;;14.40;100896.00;;;;4875809;29;20037;-73
2021/12/09 03:57:24;;;;;;;0.00;0.00;;;;;14.40;100919.00;;;;4889979;29;20584;-75
2021/12/09 03:59:53;;;;;;;0.00;0.00;;;;;14.40;100910.00;;;;4876353;29;20112;-74
2021/12/09 04:02:23;;;;;;;0.00;0.00;;;;;14.30;100896.00;;;;4876382;29;20057;-76
2021/12/09 04:04:53;;;;;;;0.00;0.00;;;;;14.30;100910.00;;;;4876452;29;20104;-74
2021/12/09 04:07:22;;;;;;;0.00;0.00;;;;;14.30;100913.00;;;;4876157;29;20049;-74
2021/12/09 04:09:52;;;;;;;0.00;0.00;;;;;14.40;100883.00;;;;4875247;29;20504;-75
2021/12/09 04:12:21;;;;;;;0.00;0.00;;;;;14.30;100907.00;;;;4875802;29;20049;-76
2021/12/09 04:14:52;;;;;;;0.00;0.00;;;;;14.40;100885.00;;;;4875674;29;20513;-74
2021/12/09 04:17:21;;;;;;;0.00;0.00;;;;;14.30;100877.00;;;;4875243;29;20052;-74
2021/12/09 04:19:51;;;;;;;0.00;0.00;;;;;14.30;100877.00;;;;4875263;29;20053;-76
2021/12/09 04:22:21;;;;;;;0.52;0.32;;;;;14.30;100897.00;;;;4874970;29;20112;-74
2021/12/09 04:24:53;;;;;;;0.00;0.00;;;;;14.30;100879.00;;;;4875556;29;20105;-76
2021/12/09 04:27:23;;;;;;;0.00;0.00;;;;;14.20;100889.00;;;;4875632;29;20056;-73
2021/12/09 04:29:54;;;;;;;0.00;0.00;;;;;14.20;100861.00;;;;4875317;29;20057;-74
2021/12/09 04:32:23;;;;;;;0.00;0.00;;;;;14.20;100868.00;;;;4876041;29;20140;-76
2021/12/09 04:34:58;;;;;;;0.00;0.00;;;;;14.30;100896.00;;;;4874841;29;20132;-75
2021/12/09 04:37:28;;;;;;;0.00;0.00;;;;;14.30;100859.00;;;;4875079;29;20064;-73
2021/12/09 04:39:57;;;;;;;0.00;0.00;;;;;14.30;100873.00;;;;4873528;29;20049;-73
2021/12/09 04:42:28;;;;;;;0.00;0.00;;;;;14.30;100847.00;;;;4873759;29;20739;-74
2021/12/09 04:44:57;;;;;;;0.00;0.00;;;;;14.20;100887.00;;;;4874991;29;20053;-74
2021/12/09 04:47:27;;;;;;;0.00;0.00;;;;;14.10;100874.00;;;;4871949;29;20048;-75
2021/12/09 04:49:57;;;;;;;0.00;0.00;;;;;14.00;100876.00;;;;4871613;29;20779;-74
2021/12/09 04:52:26;;;;;;;0.00;0.00;;;;;13.90;100861.00;;;;4871920;29;20127;-73
2021/12/09 04:54:55;;;;;;;0.00;0.00;;;;;13.90;100873.00;;;;4875067;29;20048;-76
2021/12/09 04:57:25;;;;;;;0.00;0.00;;;;;13.90;100857.00;;;;4874923;29;20073;-73
2021/12/09 04:59:54;;;;;;;0.00;0.00;;;;;13.80;100844.00;;;;4875581;29;20101;-72
2021/12/09 05:05:22;;;;;;;0.00;0.00;;;;;13.80;100874.00;;;;4854114;29;20053;-75
2021/12/09 05:07:52;;;;;;;0.00;0.00;;;;;13.80;100830.00;;;;4874709;29;20327;-74
2021/12/09 05:10:21;;;;;;;0.00;0.00;;;;;13.70;100835.00;;;;4874192;29;20124;-73
2021/12/09 05:12:50;;;;;;;0.00;0.00;;;;;13.70;100843.00;;;;4874874;29;20485;-74
2021/12/09 05:15:20;;;;;;;0.00;0.00;;;;;13.70;100836.00;;;;4876454;29;20049;-75
2021/12/09 05:17:49;;;;;;;0.00;0.00;;;;;13.70;100854.00;;;;4891049;29;20048;-73
2021/12/09 05:20:19;;;;;;;0.00;0.00;;;;;13.70;100854.00;;;;4875462;29;20049;-74
2021/12/09 05:22:49;;;;;;;0.00;0.00;;;;;13.70;100860.00;;;;4874470;29;20057;-75
2021/12/09 05:25:18;;;;;;;0.00;0.00;;;;;13.70;100845.00;;;;4874884;29;20057;-74
2021/12/09 05:27:48;;;;;;;0.00;0.00;;;;;13.60;100867.00;;;;4873815;29;20057;-73
2021/12/09 05:30:24;;;;;;;0.00;0.00;;;;;13.50;100850.00;;;;4874517;29;20184;-73
2021/12/09 05:32:54;;;;;;;0.00;0.00;;;;;13.50;100836.00;;;;4873676;29;20051;-74
2021/12/09 05:35:23;;;;;;;0.00;0.00;;;;;13.40;100836.00;;;;4874116;29;20497;-73
2021/12/09 05:37:53;;;;;;;0.00;0.00;;;;;13.40;100851.00;;;;4874167;29;20767;-73
2021/12/09 05:40:22;;;;;;;0.00;0.00;;;;;13.30;100838.00;;;;4873948;29;20574;-73
2021/12/09 05:42:52;;;;;;;0.00;0.00;;;;;13.30;100837.00;;;;4874113;29;20060;-73
2021/12/09 05:45:21;;;;;;;0.00;0.00;;;;;13.30;100837.00;;;;4874518;29;20060;-73
2021/12/09 05:47:51;;;;;;;0.00;0.00;;;;;13.40;100837.00;;;;4873818;29;20113;-74
2021/12/09 05:50:20;;;;;;;0.00;0.00;;;;;13.50;100835.00;;;;4874639;29;20045;-73
2021/12/09 05:52:49;;;;;;;0.00;0.00;;;;;13.50;100848.00;;;;4873388;29;20056;-74
2021/12/09 05:55:19;;;;;;;0.00;0.00;;;;;13.40;100774.00;;;;4873781;29;20424;-73
2021/12/09 05:57:48;;;;;;;0.00;0.00;;;;;13.30;100852.00;;;;4873494;29;20108;-73
2021/12/09 06:00:18;;;;;;;0.00;0.00;;;;;13.20;100862.00;;;;4873876;29;20085;-73
2021/12/09 06:02:47;;;;;;;0.00;0.00;;;;;13.20;100851.00;;;;4873791;29;21215;-74
2021/12/09 06:05:18;;;;;;;0.00;0.00;;;;;13.20;100859.00;;;;4888199;29;20461;-74
2021/12/09 06:07:49;;;;;;;0.00;0.00;;;;;13.20;100843.00;;;;4874148;29;20056;-73
2021/12/09 06:10:18;;;;;;;0.00;0.00;;;;;13.20;100823.00;;;;4873048;29;20105;-74
2021/12/09 06:12:48;;;;;;;0.00;0.00;;;;;13.20;100816.00;;;;4873492;29;20049;-73
2021/12/09 06:15:17;;;;;;;0.00;0.00;;;;;13.10;100817.00;;;;4873422;29;20102;-73
2021/12/09 06:17:46;;;;;;;0.00;0.00;;;;;13.10;100805.00;;;;4874189;29;20057;-74
2021/12/09 06:20:16;;;;;;;0.00;0.00;;;;;13.00;100808.00;;;;4873581;29;20049;-74
2021/12/09 06:22:45;;;;;;;0.00;0.00;;;;;13.00;100816.00;;;;4887506;29;20100;-74
2021/12/09 06:25:18;;;;;;;0.00;0.00;;;;;13.00;100801.00;;;;4873026;29;20049;-74
2021/12/09 06:27:49;;;;;;;0.00;0.00;;;;;13.10;100818.00;;;;4873456;29;20045;-73
2021/12/09 06:30:20;;;;;;;0.00;0.00;;;;;13.10;100814.00;;;;4873111;29;20077;-74
2021/12/09 06:32:50;;;;;;;0.00;0.00;;;;;13.00;100814.00;;;;4872425;29;20049;-73
2021/12/09 06:35:21;;;;;;;0.00;0.00;;;;;13.00;100813.00;;;;4872844;29;20041;-74
2021/12/09 06:37:51;;;;;;;;;;;;;13.10;100810.00;;;;4873255;29;20104;-74
2021/12/09 06:40:22;;;;;;;0.00;0.00;;;;;13.10;100806.00;;;;4873558;29;19971;-73
2021/12/09 06:42:53;;;;;;;0.00;0.00;;;;;13.20;100795.00;;;;4873318;29;20569;-73
2021/12/09 06:45:24;;;;;;;0.00;0.00;;;;;13.20;100814.00;;;;4873946;29;20070;-73
2021/12/09 06:47:54;;;;;;;0.00;0.00;;;;;13.10;100801.00;;;;4873291;29;20064;-73
2021/12/09 06:50:24;;;;;;;0.00;0.00;;;;;13.20;100813.00;;;;4873240;29;20081;-73
2021/12/09 06:52:53;;;;;;;0.00;0.00;;;;;13.20;100809.00;;;;4872797;29;20053;-74
2021/12/09 06:55:23;;;;;;;0.00;0.00;;;;;13.20;100818.00;;;;4873206;29;20468;-73
2021/12/09 06:57:52;;;;;;;0.00;0.00;;;;;13.10;100825.00;;;;4873041;29;20580;-73
2021/12/09 07:00:28;;;;;;;0.00;0.00;;;;;13.30;100827.00;;;;4873187;29;20168;-74
2021/12/09 07:02:58;;;;;;;0.00;0.00;;;;;13.20;100810.00;;;;4873220;29;20045;-73
2021/12/09 07:05:29;;;;;;;0.00;0.00;;;;;13.20;100806.00;;;;4875941;29;20682;-74
2021/12/09 07:07:59;;;;;;;0.00;0.00;;;;;13.30;100826.00;;;;4876946;29;20767;-74
2021/12/09 07:10:28;;;;;;;0.00;0.00;;;;;13.20;100806.00;;;;4877406;29;20104;-73
2021/12/09 07:12:58;;;;;;;0.00;0.00;;;;;13.20;100825.00;;;;4876628;29;20605;-74
2021/12/09 07:15:27;;;;;;;0.00;0.00;;;;;13.10;100793.00;;;;4876711;29;20453;-73
2021/12/09 07:17:56;;;;;;;0.00;0.00;;;;;13.10;100818.00;;;;4876903;29;20469;-73
2021/12/09 07:20:30;;;;;;;0.00;0.00;;;;;13.00;100771.00;;;;4876252;29;20087;-73
2021/12/09 07:23:00;;;;;;;0.00;0.00;;;;;13.10;100806.00;;;;4876450;29;20068;-73
2021/12/09 07:25:30;;;;;;;0.00;0.00;;;;;13.10;100800.00;;;;4876056;29;20053;-74
2021/12/09 07:27:59;;;;;;;0.00;0.00;;;;;13.00;100829.00;;;;4876610;29;20577;-74
2021/12/09 07:30:28;;;;;;;0.00;0.00;;;;;13.10;100825.00;;;;4876501;29;20045;-74
2021/12/09 07:32:58;;;;;;;0.00;0.00;;;;;13.20;100810.00;;;;4876035;29;20414;-73
2021/12/09 07:35:30;;;;;;;0.00;0.00;;;;;13.20;100815.00;;;;4876523;29;20101;-73
2021/12/09 07:38:05;;;;;;;0.00;0.00;;;;;13.10;100847.00;;;;4876508;29;20053;-73
2021/12/09 07:40:34;;;;;;;0.00;0.00;;;;;13.10;100821.00;;;;4876579;29;20544;-74
2021/12/09 07:43:05;;;;;;;0.00;0.00;;;;;13.00;100824.00;;;;4876258;29;20049;-74
2021/12/09 07:45:34;;;;;;;0.00;0.00;;;;;13.00;100820.00;;;;4876262;29;20052;-73
2021/12/09 07:48:04;;;;;;;0.00;0.00;;;;;13.10;100819.00;;;;4875181;29;20068;-74
2021/12/09 07:50:34;;;;;;;0.00;0.00;;;;;13.10;100844.00;;;;4875799;29;20053;-74
2021/12/09 07:53:03;;;;;;;0.00;0.00;;;;;13.20;100809.00;;;;4875844;29;20049;-73
2021/12/09 07:55:33;;;;;;;0.03;0.00;;;;;13.30;100826.00;;;;4875730;29;20053;-73
2021/12/09 07:58:02;;;;;;;0.00;0.00;;;;;13.50;100817.00;;;;4876067;29;20120;-73
2021/12/09 08:00:33;;;;;;;0.00;0.00;;;;;13.60;100827.00;;;;4876077;29;20044;-73
2021/12/09 08:03:04;;;;;;;0.00;0.00;;;;;13.80;100832.00;;;;4876033;29;20052;-74
2021/12/09 08:05:36;;;;;;;0.00;0.00;;;;;13.90;100832.00;;;;4875644;29;20057;-73
2021/12/09 08:08:06;;;;;;;0.00;0.00;;;;;14.00;100851.00;;;;4890046;29;20172;-73
2021/12/09 08:10:36;;;;;;;0.00;0.00;;;;;14.10;100860.00;;;;4876427;29;20430;-74
2021/12/09 08:13:07;;;;;;;0.00;0.00;;;;;14.20;100879.00;;;;4875454;29;20076;-73
2021/12/09 08:15:45;;;;;;;0.00;0.00;;;;;14.30;100852.00;;;;4874408;29;20114;-73
2021/12/09 08:20:56;;;;;;;0.00;0.00;;;;;14.50;100876.00;;;;4875269;29;20049;-73
2021/12/09 08:23:26;;;;;;;0.22;0.22;;;;;14.60;100859.00;;;;4875633;29;20041;-74
2021/12/09 08:25:57;;;;;;;0.00;0.00;;;;;14.60;100870.00;;;;4875250;29;20143;-73
2021/12/09 08:28:26;;;;;;;0.00;0.00;;;;;14.70;100856.00;;;;4875833;29;20049;-73
2021/12/09 08:30:56;;;;;;;0.00;0.00;;;;;14.80;100884.00;;;;4876541;29;20053;-73
2021/12/09 08:33:26;;;;;;;0.00;0.00;;;;;14.90;100873.00;;;;4874992;29;20470;-74
2021/12/09 08:35:55;;;;;;;0.00;0.00;;;;;14.90;100878.00;;;;4874852;29;20101;-74
2021/12/09 08:38:25;;;;;;;0.00;0.00;;;;;14.90;100849.00;;;;4875102;29;20505;-74
2021/12/09 08:40:55;;;;;;;0.00;0.00;;;;;14.90;100880.00;;;;4874782;29;20049;-73
2021/12/09 08:43:24;;;;;;;2.08;0.38;;;;;15.00;100862.00;;;;4875063;29;20056;-73
2021/12/09 08:45:54;;;;;;;0.00;0.00;;;;;15.00;100885.00;;;;4875371;29;20059;-73
2021/12/09 08:48:25;;;;;;;0.00;0.00;;;;;15.00;100886.00;;;;4874842;29;20109;-73
2021/12/09 08:50:55;;;;;;;0.00;0.00;;;;;14.90;100901.00;;;;4889524;29;20048;-72
2021/12/09 08:53:25;;;;;;;0.10;0.10;;;;;14.80;100884.00;;;;4875080;29;20098;-73
2021/12/09 08:55:55;;;;;;;0.00;0.00;;;;;14.90;100883.00;;;;4875140;29;20045;-73
2021/12/09 08:58:28;;;;;;;0.00;0.00;;;;;14.80;100912.00;;;;4874828;29;20156;-73
2021/12/09 09:01:00;;;;;;;0.10;0.10;;;;;14.80;100892.00;;;;4874651;29;20078;-72
2021/12/09 09:03:31;;;;;;;0.00;0.00;;;;;14.80;100907.00;;;;4888559;29;20049;-73
2021/12/09 09:06:02;;;;;;;0.00;0.00;;;;;14.80;100916.00;;;;4874798;29;20466;-72
2021/12/09 09:08:32;;;;;;;0.00;0.00;;;;;14.90;100911.00;;;;4873405;29;20551;-73
2021/12/09 09:11:02;;;;;;;0.00;0.00;;;;;14.90;100912.00;;;;4874384;29;20052;-73
2021/12/09 09:13:31;;;;;;;0.00;0.00;;;;;14.90;100929.00;;;;4873970;29;20112;-73
2021/12/09 09:16:01;;;;;;;0.00;0.00;;;;;14.90;100916.00;;;;4875206;29;20048;-73
2021/12/09 09:18:30;;;;;;;0.00;0.00;;;;;15.00;100911.00;;;;4874579;29;20101;-73
2021/12/09 09:20:59;;;;;;;0.00;0.00;;;;;15.00;100935.00;;;;4874697;29;20741;-73
2021/12/09 09:23:29;;;;;;;0.00;0.00;;;;;15.10;100934.00;;;;4874648;29;20057;-73
2021/12/09 09:25:58;;;;;;;0.00;0.00;;;;;15.30;100918.00;;;;4874364;29;20064;-73
2021/12/09 09:28:28;;;;;;;0.00;0.00;;;;;16.00;100921.00;;;;4874590;29;20056;-72
2021/12/09 09:31:00;;;;;;;0.43;0.30;;;;;15.90;100941.00;;;;4873960;29;20064;-74
2021/12/09 09:33:30;;;;;;;0.10;0.10;;;;;16.10;100927.00;;;;4875187;29;20141;-73
2021/12/09 09:36:00;;;;;;;0.00;0.00;;;;;16.00;100928.00;;;;4874258;29;20049;-73
2021/12/09 09:38:30;;;;;;;0.00;0.00;;;;;15.90;100932.00;;;;4873706;29;20084;-73
2021/12/09 09:41:08;;;;;;;0.00;0.00;;;;;17.00;100881.00;;;;4873162;29;20045;-73
2021/12/09 09:46:20;;;;;;;0.00;0.00;;;;;16.90;100960.00;;;;4873920;29;20508;-73
2021/12/09 09:48:52;;;;;;;1.50;0.40;;;;;16.80;100941.00;;;;4873169;29;20053;-73
2021/12/09 09:51:23;;;;;;;0.00;0.00;;;;;16.70;100930.00;;;;4873722;29;20524;-73
2021/12/09 09:53:53;;;;;;;0.52;0.40;;;;;16.80;100953.00;;;;4876270;29;20107;-73
2021/12/09 09:56:24;;;;;;;0.10;0.10;;;;;16.80;100947.00;;;;4873530;29;20052;-71
2021/12/09 09:58:57;;;;;;;0.65;0.10;;;;;16.90;100938.00;;;;4872473;29;20476;-72
2021/12/09 10:01:29;;;;;;;0.00;0.00;;;;;17.00;100948.00;;;;4873347;29;20072;-74
2021/12/09 10:04:14;;;;;;;0.43;0.10;;;;;17.30;100960.00;;;;4872881;29;20060;-75
2021/12/09 10:06:45;;;;;;;0.00;0.00;;;;;17.70;100935.00;;;;4873258;29;20041;-75
2021/12/09 10:09:16;;;;;;;0.00;0.00;;;;;17.90;100942.00;;;;4874040;29;20049;-74
2021/12/09 10:11:46;;;;;;;;;;;;;18.10;100961.00;;;;4874421;29;20519;-72
2021/12/09 10:14:22;;;;;;;0.00;0.00;;;;;19.20;100906.00;;;;4873532;29;19928;-74
2021/12/09 10:17:07;;;;;;;0.10;0.10;;;;;18.90;100956.00;;;;4873550;29;20041;-73
2021/12/09 10:19:40;;;;;;;0.00;0.00;;;;;18.70;100933.00;;;;4872845;29;20056;-74
2021/12/09 10:22:21;;;;;;;0.00;0.00;;;;;19.00;100945.00;;;;4873442;29;20053;-74
2021/12/09 10:24:54;;;;;;;0.00;0.00;;;;;19.00;100946.00;;;;4873237;29;20100;-75
2021/12/09 10:27:31;;;;;;;0.00;0.00;;;;;19.60;100909.00;;;;4874054;29;20616;-71
2021/12/09 10:30:12;;;;;;;0.00;0.00;;;;;20.60;100919.00;;;;4871453;29;20546;-74
2021/12/09 10:32:43;;;;;;;0.00;0.00;;;;;20.00;100923.00;;;;4873212;29;20122;-74
2021/12/09 10:35:20;;;;;;;0.00;0.00;;;;;19.90;100895.00;;;;4872937;29;20123;-72
2021/12/09 10:37:55;;;;;;;1.23;1.13;;;;;19.50;100939.00;;;;4873084;29;20045;-73
2021/12/09 10:40:30;;;;;;;0.00;0.00;;;;;19.40;100919.00;;;;4873977;29;20094;-73
2021/12/09 10:43:03;;;;;;;0.00;0.00;;;;;20.00;100917.00;;;;4873653;29;20063;-74
2021/12/09 10:45:34;;;;;;;0.00;0.00;;;;;19.70;100946.00;;;;4873010;29;20626;-74
2021/12/09 10:48:25;;;;;;;0.00;0.00;;;;;19.80;100945.00;;;;4873045;29;20525;-73
2021/12/09 10:51:12;;;;;;;0.00;0.00;;;;;19.90;100942.00;;;;4872951;29;20128;-73
2021/12/09 10:53:47;;;;;;;0.00;0.00;;;;;20.20;100939.00;;;;4872854;29;20041;-73
2021/12/09 10:56:31;;;;;;;0.88;0.60;;;;;24.70;100773.00;;;;4873027;29;20129;-73
2021/12/09 10:59:02;;;;;;;0.05;0.05;;;;;28.90;100738.00;;;;4872624;29;20045;-74
2021/12/09 11:01:34;;;;;;;0.10;0.10;;;;;30.10;100726.00;;;;4873051;29;20127;-73
2021/12/09 11:04:04;;;;;;;0.00;0.00;;;;;30.60;100725.00;;;;4872796;29;20084;-75
2021/12/09 11:06:39;;;;;;;0.00;0.00;;;;;31.70;100720.00;;;;4872668;29;20156;-73
2021/12/09 11:09:12;;;;;;;0.00;0.00;;;;;31.40;100725.00;;;;4873174;29;20057;-75
2021/12/09 11:11:45;;;;;;;0.00;0.00;;;;;30.80;100695.00;;;;4872515;29;20539;-76
2021/12/09 11:14:18;;;;;;;0.00;0.00;;;;;30.50;100715.00;;;;4872830;29;20040;-74
2021/12/09 11:16:50;;;;;;;0.00;0.00;;;;;30.30;100868.00;;;;4872660;29;20045;-75
2021/12/09 11:19:34;;;;;;;0.00;0.00;;;;;31.00;100731.00;;;;4872511;29;20532;-74
2021/12/09 11:22:19;;;;;;;0.08;0.08;;;;;32.90;100768.00;;;;4872660;29;20040;-75
2021/12/09 11:24:57;;;;;;;0.00;0.00;;;;;32.90;100689.00;;;;4872695;29;20139;-74
2021/12/09 11:27:29;;;;;;;0.00;0.00;;;;;27.30;100914.00;;;;4872828;29;20056;-75
2021/12/09 11:30:12;;;;;;;0.00;0.00;;;;;29.30;100704.00;;;;4871689;29;20085;-75
2021/12/09 11:32:55;;;;;;;0.03;0.03;;;;;31.10;100652.00;;;;4873438;29;20076;-75
2021/12/09 11:35:27;;;;;;;0.45;0.35;;;;;30.50;100700.00;;;;4872485;29;20045;-73
2021/12/09 11:38:10;;;;;;;0.13;0.10;;;;;30.20;100719.00;;;;4872012;29;20052;-73
2021/12/09 11:40:56;;;;;;;0.00;0.00;;;;;29.10;100710.00;;;;4872409;29;20076;-73
2021/12/09 11:43:27;;;;;;;0.00;0.00;;;;;29.20;100703.00;;;;4872389;29;20132;-73
2021/12/09 11:45:59;;;;;;;;;;;;;28.30;100729.00;;;;4872657;29;20049;-74
2021/12/09 11:48:30;;;;;;;0.00;0.00;;;;;27.20;100873.00;;;;4872784;29;19928;-72
2021/12/09 11:51:00;;;;;;;;;;;;;25.40;100919.00;;;;4875899;29;20469;-74
2021/12/09 11:53:33;;;;;;;0.00;0.00;;;;;24.30;100935.00;;;;4875934;29;19927;-74
2021/12/09 11:56:20;;;;;;;0.00;0.00;;;;;24.80;100880.00;;;;4876102;29;20420;-73
2021/12/09 12:13:55;;;;;;;0.08;0.08;;;;;22.30;100928.00;;;;4875225;29;20093;-74
2021/12/09 12:16:36;;;;;;;0.00;0.00;;;;;22.70;100927.00;;;;4875430;29;20577;-71
2021/12/09 12:19:18;;;;;;;0.47;0.17;;;;;23.10;100879.00;;;;4875475;29;20410;-73
2021/12/09 12:22:37;;;;;;;0.00;0.00;;;;;23.70;100897.00;;;;4875921;29;20068;-74
2021/12/09 12:25:22;;;;;;;0.00;0.00;;;;;24.10;100899.00;;;;4872755;29;20049;-73
2021/12/09 12:27:50;;;;;;;0.30;0.13;;;;;23.80;100922.00;;;;4875402;29;20420;-72
2021/12/09 12:30:49;;;;;;;0.00;0.00;;;;;23.20;100907.00;;;;4875704;29;20049;-73
2021/12/09 12:33:29;;;;;;;0.88;0.10;;;;;23.40;100861.00;;;;4875158;29;20068;-73
2021/12/09 12:36:20;;;;;;;0.00;0.00;;;;;24.50;100816.00;;;;4874974;29;20562;-72
2021/12/09 12:39:12;;;;;;;4.13;0.20;;;;;26.60;100807.00;;;;4875374;29;20049;-72
2021/12/09 12:42:03;;;;;;;0.00;0.00;;;;;27.00;100802.00;;;;4875152;29;20068;-73
2021/12/09 12:44:32;;;;;;;0.00;0.00;;;;;28.10;100881.00;;;;4875299;29;20129;-75
2021/12/09 12:47:14;;;;;;;0.28;0.20;;;;;26.00;100865.00;;;;4875331;29;20049;-74
2021/12/09 12:50:13;;;;;;;0.00;0.00;;;;;27.40;100797.00;;;;4873703;29;20143;-74
2021/12/09 12:52:44;;;;;;;0.00;0.00;;;;;28.60;100791.00;;;;4874546;29;20327;-73
2021/12/09 12:55:24;;;;;;;3.72;0.10;;;;;28.40;100885.00;;;;4875206;29;20173;-75
2021/12/09 12:57:54;;;;;;;0.00;0.00;;;;;26.00;100867.00;;;;4874494;29;20060;-74